sensor_id;sensor_type;location;lat;lon;timestamp;pressure;altitude;pressure_sealevel;temperature;humidity
43691;BME280;29293;52.190;21.226;2023-05-19T01:25:39;101472.50;;;9.98;100.00
43691;BME280;29293;52.190;21.226;2023-05-19T01:40:51;101465.79;;;9.40;100.00
43691;BME280;29293;52.190;21.226;2023-05-19T01:56:03;101461.64;;;9.21;100.00
43691;BME280;29293;52.190;21.226;2023-05-19T02:11:17;101460.49;;;9.12;100.00
43691;BME280;29293;52.190;21.226;2023-05-19T04:08:39;101453.89;;;9.85;100.00
43691;BME280;29293;52.190;21.226;2023-05-19T04:36:36;101453.16;;;9.36;100.00
43691;BME280;29293;52.190;21.226;2023-05-19T04:51:46;101450.56;;;9.33;100.00
43691;BME280;29293;52.190;21.226;2023-05-19T05:06:54;101456.59;;;9.37;100.00
43691;BME280;29293;52.190;21.226;2023-05-19T05:22:05;101462.77;;;9.38;100.00
43691;BME280;29293;52.190;21.226;2023-05-19T05:37:13;101459.52;;;9.46;100.00
43691;BME280;29293;52.190;21.226;2023-05-19T06:50:42;101461.13;;;10.13;100.00
43691;BME280;29293;52.190;21.226;2023-05-19T07:05:50;101462.40;;;10.26;100.00
43691;BME280;29293;52.190;21.226;2023-05-19T07:21:01;101458.89;;;10.36;100.00
43691;BME280;29293;52.190;21.226;2023-05-19T07:36:11;101460.66;;;10.46;100.00
43691;BME280;29293;52.190;21.226;2023-05-19T07:51:18;101457.23;;;10.59;100.00
43691;BME280;29293;52.190;21.226;2023-05-19T08:06:25;101460.20;;;10.75;100.00
43691;BME280;29293;52.190;21.226;2023-05-19T08:21:34;101450.56;;;10.90;100.00
43691;BME280;29293;52.190;21.226;2023-05-19T08:36:42;101448.17;;;11.08;100.00
43691;BME280;29293;52.190;21.226;2023-05-19T08:51:54;101458.81;;;11.25;100.00
43691;BME280;29293;52.190;21.226;2023-05-19T09:07:04;101460.79;;;11.40;100.00
43691;BME280;29293;52.190;21.226;2023-05-19T09:22:11;101462.08;;;11.57;100.00
43691;BME280;29293;52.190;21.226;2023-05-19T09:37:22;101458.98;;;11.75;100.00
43691;BME280;29293;52.190;21.226;2023-05-19T09:52:30;101460.85;;;11.82;100.00
43691;BME280;29293;52.190;21.226;2023-05-19T10:07:37;101457.73;;;11.98;100.00
43691;BME280;29293;52.190;21.226;2023-05-19T10:22:46;101452.41;;;12.21;100.00
43691;BME280;29293;52.190;21.226;2023-05-19T10:38:00;101442.11;;;12.36;100.00
43691;BME280;29293;52.190;21.226;2023-05-19T10:53:16;101440.31;;;12.51;100.00
43691;BME280;29293;52.190;21.226;2023-05-19T11:08:33;101442.83;;;12.64;100.00
43691;BME280;29293;52.190;21.226;2023-05-19T11:23:40;101436.45;;;12.84;100.00
43691;BME280;29293;52.190;21.226;2023-05-19T11:38:49;101443.09;;;13.07;100.00
43691;BME280;29293;52.190;21.226;2023-05-19T11:53:58;101434.38;;;13.09;100.00
43691;BME280;29293;52.190;21.226;2023-05-19T12:09:07;101437.08;;;13.15;100.00
43691;BME280;29293;52.190;21.226;2023-05-19T12:24:14;101440.87;;;13.19;100.00
43691;BME280;29293;52.190;21.226;2023-05-19T12:39:21;101436.40;;;13.32;100.00
43691;BME280;29293;52.190;21.226;2023-05-19T12:54:33;101438.79;;;13.40;100.00
43691;BME280;29293;52.190;21.226;2023-05-19T13:09:40;101430.11;;;13.33;100.00
43691;BME280;29293;52.190;21.226;2023-05-19T13:24:46;101429.95;;;13.35;100.00
43691;BME280;29293;52.190;21.226;2023-05-19T13:39:53;101432.81;;;13.35;100.00
43691;BME280;29293;52.190;21.226;2023-05-19T13:55:02;101429.33;;;13.28;100.00
43691;BME280;29293;52.190;21.226;2023-05-19T14:10:12;101428.00;;;13.29;100.00
43691;BME280;29293;52.190;21.226;2023-05-19T14:25:19;101426.92;;;13.37;100.00
43691;BME280;29293;52.190;21.226;2023-05-19T14:40:26;101423.03;;;13.47;100.00
43691;BME280;29293;52.190;21.226;2023-05-19T14:55:33;101426.45;;;13.53;100.00
43691;BME280;29293;52.190;21.226;2023-05-19T15:10:40;101429.45;;;13.48;100.00
43691;BME280;29293;52.190;21.226;2023-05-19T15:25:47;101438.48;;;13.46;100.00
43691;BME280;29293;52.190;21.226;2023-05-19T15:40:54;101439.50;;;13.43;100.00
43691;BME280;29293;52.190;21.226;2023-05-19T15:56:04;101431.11;;;13.45;100.00
43691;BME280;29293;52.190;21.226;2023-05-19T16:11:12;101419.59;;;13.42;100.00
43691;BME280;29293;52.190;21.226;2023-05-19T16:26:18;101417.00;;;13.43;100.00
43691;BME280;29293;52.190;21.226;2023-05-19T16:41:26;101416.06;;;13.43;100.00
43691;BME280;29293;52.190;21.226;2023-05-19T16:56:33;101418.88;;;13.41;100.00
43691;BME280;29293;52.190;21.226;2023-05-19T17:11:39;101415.71;;;13.32;100.00
43691;BME280;29293;52.190;21.226;2023-05-19T17:26:46;101414.84;;;13.19;100.00
43691;BME280;29293;52.190;21.226;2023-05-19T17:41:53;101414.83;;;13.09;100.00
43691;BME280;29293;52.190;21.226;2023-05-19T17:57:02;101414.33;;;12.99;100.00
43691;BME280;29293;52.190;21.226;2023-05-19T18:12:09;101418.98;;;12.92;100.00
43691;BME280;29293;52.190;21.226;2023-05-19T18:27:16;101420.96;;;12.85;100.00
43691;BME280;29293;52.190;21.226;2023-05-19T18:42:23;101423.73;;;12.76;100.00
43691;BME280;29293;52.190;21.226;2023-05-19T18:57:29;101451.48;;;12.69;100.00
43691;BME280;29293;52.190;21.226;2023-05-19T19:12:39;101457.94;;;12.65;100.00
43691;BME280;29293;52.190;21.226;2023-05-19T19:27:46;101467.38;;;12.60;100.00
43691;BME280;29293;52.190;21.226;2023-05-19T19:42:52;101468.98;;;12.53;100.00
43691;BME280;29293;52.190;21.226;2023-05-19T19:57:59;101473.93;;;12.48;100.00
43691;BME280;29293;52.190;21.226;2023-05-19T20:13:06;101477.53;;;12.46;100.00
43691;BME280;29293;52.190;21.226;2023-05-19T20:28:13;101472.46;;;12.42;100.00
43691;BME280;29293;52.190;21.226;2023-05-19T20:43:20;101470.92;;;12.41;100.00
43691;BME280;29293;52.190;21.226;2023-05-19T20:58:27;101478.50;;;12.37;100.00
43691;BME280;29293;52.190;21.226;2023-05-19T21:13:34;101483.55;;;12.34;100.00
43691;BME280;29293;52.190;21.226;2023-05-19T21:28:43;101483.80;;;12.31;100.00
43691;BME280;29293;52.190;21.226;2023-05-19T21:43:50;101485.38;;;12.29;100.00
43691;BME280;29293;52.190;21.226;2023-05-19T21:58:57;101479.80;;;12.28;100.00
43691;BME280;29293;52.190;21.226;2023-05-19T22:14:04;101478.27;;;12.27;100.00
43691;BME280;29293;52.190;21.226;2023-05-19T22:29:11;101474.91;;;12.25;100.00
43691;BME280;29293;52.190;21.226;2023-05-19T22:44:20;101482.08;;;12.22;100.00
43691;BME280;29293;52.190;21.226;2023-05-19T22:59:27;101476.27;;;12.19;100.00
43691;BME280;29293;52.190;21.226;2023-05-19T23:14:35;101474.73;;;12.16;100.00
43691;BME280;29293;52.190;21.226;2023-05-19T23:29:41;101466.19;;;12.11;100.00
43691;BME280;29293;52.190;21.226;2023-05-19T23:44:52;101459.42;;;12.06;100.00
43691;BME280;29293;52.190;21.226;2023-05-19T23:59:58;101471.59;;;12.00;100.00
